createdAt,value
2023-02-11T00:00:51.235Z,50.03
2023-02-11T00:02:54.454Z,66.75
2023-02-11T00:04:57.906Z,57.80
2023-02-11T00:07:02.139Z,49.40
2023-02-11T00:09:07.215Z,54.55
2023-02-11T00:11:14.613Z,46.72
2023-02-11T00:13:17.645Z,53.45
2023-02-11T00:15:21.180Z,45.53
2023-02-11T00:17:24.263Z,52.95
2023-02-11T00:19:27.400Z,48.22
2023-02-11T00:21:30.848Z,50.53
2023-02-11T00:23:33.928Z,58.47
2023-02-11T00:25:41.871Z,54.17
2023-02-11T00:27:44.954Z,52.72
2023-02-11T00:29:49.159Z,49.70
2023-02-11T00:31:52.545Z,53.28
2023-02-11T00:33:56.228Z,53.45
2023-02-11T00:35:59.290Z,53.45
2023-02-11T00:38:02.356Z,56.95
2023-02-11T00:40:06.900Z,51.60
2023-02-11T00:42:15.542Z,54.75
2023-02-11T00:44:19.203Z,53.78
2023-02-11T00:46:24.618Z,52.92
2023-02-11T00:48:27.738Z,58.88
2023-02-11T00:50:43.063Z,58.95
2023-02-11T00:52:46.126Z,56.38
2023-02-11T00:54:49.179Z,53.25
2023-02-11T00:56:52.264Z,61.10
2023-02-11T00:58:56.749Z,60.50
2023-02-11T01:01:00.065Z,56.70
2023-02-11T01:03:03.389Z,50.58
2023-02-11T01:05:07.064Z,61.05
2023-02-11T01:07:10.228Z,59.92
2023-02-11T01:09:13.304Z,62.92
2023-02-11T01:11:18.664Z,61.75
2023-02-11T01:13:21.771Z,58.13
2023-02-11T01:15:26.423Z,62.03
2023-02-11T01:17:29.683Z,65.03
2023-02-11T01:19:32.762Z,60.00
2023-02-11T01:21:35.888Z,54.97
2023-02-11T01:23:39.049Z,55.78
2023-02-11T01:25:42.133Z,59.22
2023-02-11T01:27:45.240Z,60.47
2023-02-11T01:29:48.344Z,67.45
2023-02-11T01:31:52.800Z,60.03
2023-02-11T01:33:55.978Z,61.53
2023-02-11T01:36:02.888Z,68.68
2023-02-11T01:38:06.150Z,57.35
2023-02-11T01:40:14.097Z,65.15
2023-02-11T01:42:18.790Z,60.58
2023-02-11T01:44:26.598Z,54.92
2023-02-11T01:46:33.392Z,54.72
2023-02-11T01:48:42.808Z,59.65
2023-02-11T01:50:48.459Z,57.45
2023-02-11T01:52:51.549Z,63.97
2023-02-11T01:55:15.151Z,65.57
2023-02-11T01:57:25.275Z,68.07
2023-02-11T01:59:33.327Z,60.35
2023-02-11T02:01:40.163Z,65.85
2023-02-11T02:03:48.300Z,67.45
2023-02-11T02:05:58.527Z,61.45
2023-02-11T02:08:07.758Z,63.42
2023-02-11T02:10:14.836Z,67.70
2023-02-11T02:12:17.913Z,63.13
2023-02-11T02:14:21.611Z,66.93
2023-02-11T02:16:30.812Z,58.03
2023-02-11T02:18:48.816Z,68.43
2023-02-11T02:21:30.583Z,63.67
2023-02-11T02:23:53.693Z,65.18
2023-02-11T02:26:39.200Z,62.58
2023-02-11T02:29:12.216Z,56.53
2023-02-11T02:31:35.410Z,60.67
2023-02-11T02:33:45.176Z,59.20
2023-02-11T02:35:52.981Z,54.60
2023-02-11T02:38:02.664Z,57.67
2023-02-11T02:40:12.745Z,56.58
2023-02-11T02:42:17.181Z,59.63
2023-02-11T02:44:20.854Z,55.72
2023-02-11T02:46:26.538Z,54.80
2023-02-11T02:48:31.641Z,50.05
2023-02-11T02:50:39.027Z,60.25
2023-02-11T02:52:50.691Z,56.00
2023-02-11T02:55:14.960Z,55.78
2023-02-11T02:57:30.442Z,57.72
2023-02-11T02:59:47.656Z,54.08
2023-02-11T03:01:58.422Z,57.70
2023-02-11T03:04:09.599Z,56.45
2023-02-11T03:06:20.314Z,61.05
2023-02-11T03:08:30.200Z,57.27
2023-02-11T03:10:37.501Z,60.00
2023-02-11T03:12:42.022Z,62.25
2023-02-11T03:14:46.126Z,58.55
2023-02-11T03:16:51.834Z,61.90
2023-02-11T03:19:01.854Z,61.40
2023-02-11T03:21:08.766Z,66.28
2023-02-11T03:23:20.033Z,59.20
2023-02-11T03:25:30.452Z,68.05
2023-02-11T03:27:39.291Z,57.45
2023-02-11T03:29:49.373Z,55.47
2023-02-11T03:31:57.480Z,58.67
2023-02-11T03:34:05.524Z,58.88
2023-02-11T03:36:15.180Z,57.42
2023-02-11T03:38:23.536Z,59.97
2023-02-11T03:40:29.649Z,59.10
2023-02-11T03:42:38.070Z,61.30
2023-02-11T03:44:47.266Z,58.40
2023-02-11T03:46:53.312Z,57.00
2023-02-11T03:49:00.468Z,58.45
2023-02-11T03:51:08.042Z,56.42
2023-02-11T03:53:12.919Z,58.25
2023-02-11T03:55:21.476Z,53.30
2023-02-11T03:57:25.137Z,51.22
2023-02-11T03:59:28.697Z,58.80
2023-02-11T04:01:31.918Z,46.40
2023-02-11T04:03:35.289Z,56.55
2023-02-11T04:05:39.138Z,52.42
2023-02-11T04:07:42.235Z,54.38
2023-02-11T04:09:45.376Z,45.10
2023-02-11T04:11:49.774Z,46.78
2023-02-11T04:13:52.913Z,46.25
2023-02-11T04:15:55.945Z,52.40
2023-02-11T04:17:58.981Z,45.78
2023-02-11T04:20:02.204Z,44.60
2023-02-11T04:22:05.313Z,47.05
2023-02-11T04:24:08.464Z,48.97
2023-02-11T04:26:11.607Z,41.95
2023-02-11T04:28:17.505Z,43.60
2023-02-11T04:30:20.499Z,46.55
2023-02-11T04:32:23.548Z,43.75
2023-02-11T04:34:26.699Z,40.55
2023-02-11T04:36:29.735Z,52.08
2023-02-11T04:38:32.726Z,37.90
2023-02-11T04:40:35.773Z,44.40
2023-02-11T04:42:38.997Z,49.70
2023-02-11T04:44:43.413Z,40.75
2023-02-11T04:46:46.521Z,47.22
2023-02-11T04:48:49.709Z,40.75
2023-02-11T04:50:52.959Z,45.35
2023-02-11T04:52:56.083Z,40.70
2023-02-11T04:54:59.182Z,40.00
2023-02-11T04:57:02.238Z,38.33
2023-02-11T04:59:06.069Z,53.03
2023-02-11T05:01:12.718Z,46.03
2023-02-11T05:03:15.843Z,43.13
2023-02-11T05:05:19.083Z,39.30
2023-02-11T05:07:22.181Z,39.28
2023-02-11T05:09:25.356Z,39.03
2023-02-11T05:11:28.422Z,41.08
2023-02-11T05:13:31.845Z,46.08
2023-02-11T05:15:34.980Z,45.15
2023-02-11T05:17:39.556Z,42.38
2023-02-11T05:19:43.209Z,50.70
2023-02-11T05:22:01.286Z,48.35
2023-02-11T05:24:05.680Z,40.35
2023-02-11T05:26:09.873Z,39.90
2023-02-11T05:28:13.043Z,48.60
2023-02-11T05:30:16.406Z,49.05
2023-02-11T05:32:19.439Z,51.22
2023-02-11T05:34:24.117Z,45.70
2023-02-11T05:36:27.327Z,52.20
2023-02-11T05:38:30.800Z,42.33
2023-02-11T05:40:34.332Z,47.60
2023-02-11T05:42:37.478Z,43.88
2023-02-11T05:44:40.678Z,40.20
2023-02-11T05:46:43.735Z,44.88
2023-02-11T05:48:47.017Z,44.20
2023-02-11T05:50:51.403Z,46.45
2023-02-11T05:52:54.619Z,46.13
2023-02-11T05:54:57.876Z,43.40
2023-02-11T05:57:00.938Z,46.33
2023-02-11T05:59:04.060Z,49.65
2023-02-11T06:01:07.153Z,44.67
2023-02-11T06:03:10.224Z,42.58
2023-02-11T06:05:13.264Z,42.40
2023-02-11T06:07:17.711Z,37.95
2023-02-11T06:09:20.894Z,35.53
2023-02-11T06:11:24.023Z,34.08
2023-02-11T06:13:27.137Z,33.15
2023-02-11T06:15:30.969Z,32.83
2023-02-11T06:17:34.076Z,31.02
2023-02-11T06:19:37.184Z,35.92
2023-02-11T06:21:44.079Z,31.92
2023-02-11T06:23:49.217Z,28.17
2023-02-11T06:25:53.367Z,35.90
2023-02-11T06:27:56.618Z,31.10
2023-02-11T06:29:59.839Z,26.80
2023-02-11T06:32:03.103Z,29.33
2023-02-11T06:34:06.705Z,31.60
2023-02-11T06:36:14.755Z,30.95
2023-02-11T06:38:17.835Z,37.05
2023-02-11T06:40:22.524Z,35.20
2023-02-11T06:42:25.629Z,32.28
2023-02-11T06:44:28.733Z,32.67
2023-02-11T06:46:31.786Z,31.02
2023-02-11T06:48:35.780Z,30.50
2023-02-11T06:50:39.401Z,34.63
2023-02-11T06:52:42.975Z,32.15
2023-02-11T06:54:46.141Z,35.75
2023-02-11T06:56:50.665Z,34.90
2023-02-11T06:58:55.716Z,37.60
2023-02-11T07:00:58.932Z,36.20
2023-02-11T07:03:02.079Z,32.63
2023-02-11T07:05:07.095Z,35.83
2023-02-11T07:07:10.237Z,37.97
2023-02-11T07:09:15.145Z,34.25
2023-02-11T07:11:20.630Z,40.53
2023-02-11T07:13:25.249Z,35.80
2023-02-11T07:15:28.440Z,35.88
2023-02-11T07:17:31.503Z,41.65
2023-02-11T07:19:34.558Z,31.98
2023-02-11T07:21:37.621Z,43.63
2023-02-11T07:23:41.268Z,44.72
2023-02-11T07:25:44.386Z,41.47
2023-02-11T07:27:47.457Z,38.15
2023-02-11T07:29:51.997Z,33.78
2023-02-11T07:31:55.324Z,41.85
2023-02-11T07:34:00.322Z,48.10
2023-02-11T07:36:04.218Z,45.10
2023-02-11T07:38:07.331Z,47.72
2023-02-11T07:40:11.547Z,38.78
2023-02-11T07:42:14.760Z,41.30
2023-02-11T07:44:18.717Z,48.22
2023-02-11T07:46:25.310Z,39.40
2023-02-11T07:48:28.422Z,42.88
2023-02-11T07:50:31.505Z,44.78
2023-02-11T07:52:34.558Z,50.30
2023-02-11T07:54:37.812Z,49.03
2023-02-11T07:56:41.030Z,49.10
2023-02-11T07:58:44.614Z,49.15
2023-02-11T08:00:47.724Z,51.42
2023-02-11T08:02:52.189Z,39.83
2023-02-11T08:04:55.373Z,49.08
2023-02-11T08:06:59.303Z,52.70
2023-02-11T08:09:05.970Z,51.65
2023-02-11T08:11:09.438Z,48.92
2023-02-11T08:13:12.471Z,52.72
2023-02-11T08:15:15.655Z,51.58
2023-02-11T08:17:18.885Z,52.40
2023-02-11T08:19:23.773Z,47.72
2023-02-11T08:21:27.609Z,48.42
2023-02-11T08:23:30.663Z,48.95
2023-02-11T08:25:34.090Z,53.85
2023-02-11T08:27:37.268Z,42.80
2023-02-11T08:29:40.285Z,54.08
2023-02-11T08:31:45.422Z,47.80
2023-02-11T08:33:48.601Z,51.00
2023-02-11T08:35:53.023Z,52.55
2023-02-11T08:37:56.217Z,47.35
2023-02-11T08:39:59.337Z,44.55
2023-02-11T08:42:02.435Z,44.53
2023-02-11T08:44:05.577Z,41.25
2023-02-11T08:46:09.108Z,40.33
2023-02-11T08:48:12.228Z,42.75
2023-02-11T08:50:15.293Z,45.08
2023-02-11T08:52:19.918Z,49.40
2023-02-11T08:54:23.074Z,40.92
2023-02-11T08:56:26.629Z,41.17
2023-02-11T08:58:29.986Z,41.75
2023-02-11T09:00:33.171Z,38.67
2023-02-11T09:02:36.348Z,42.80
2023-02-11T09:04:39.509Z,38.10
2023-02-11T09:06:43.050Z,39.17
2023-02-11T09:08:50.013Z,36.88
2023-02-11T09:10:53.339Z,42.22
2023-02-11T09:12:56.607Z,39.83
2023-02-11T09:14:59.945Z,41.13
2023-02-11T09:17:03.115Z,34.97
2023-02-11T09:19:06.745Z,41.85
2023-02-11T09:21:10.629Z,35.80
2023-02-11T09:23:13.933Z,41.15
2023-02-11T09:25:18.480Z,39.15
2023-02-11T09:27:21.599Z,40.72
2023-02-11T09:29:24.713Z,39.40
2023-02-11T09:31:29.540Z,35.92
2023-02-11T09:33:32.884Z,41.15
2023-02-11T09:35:36.042Z,44.67
2023-02-11T09:37:39.325Z,31.05
2023-02-11T09:39:42.380Z,41.55
2023-02-11T09:42:26.734Z,32.83
2023-02-11T09:44:33.474Z,43.35
2023-02-11T09:46:41.441Z,42.67
2023-02-11T09:48:47.378Z,35.47
2023-02-11T09:50:53.673Z,40.53
2023-02-11T09:53:01.174Z,41.75
2023-02-11T09:55:07.872Z,43.00
2023-02-11T09:57:26.555Z,40.13
2023-02-11T09:59:32.783Z,36.78
2023-02-11T10:01:41.162Z,40.28
2023-02-11T10:04:02.777Z,36.75
2023-02-11T10:06:20.014Z,38.42
2023-02-11T10:08:35.744Z,38.03
2023-02-11T10:10:52.028Z,31.42
2023-02-11T10:13:14.171Z,32.45
2023-02-11T10:15:27.115Z,42.03
2023-02-11T10:17:39.988Z,36.47
2023-02-11T10:19:55.296Z,36.30
2023-02-11T10:22:09.228Z,41.75
2023-02-11T10:24:15.574Z,35.65
2023-02-11T10:26:20.381Z,38.05
2023-02-11T10:28:26.163Z,40.25
2023-02-11T10:30:35.116Z,32.15
2023-02-11T10:32:45.178Z,42.13
2023-02-11T10:34:48.813Z,35.42
2023-02-11T10:36:52.003Z,34.85
2023-02-11T10:38:55.054Z,45.03
2023-02-11T10:40:58.130Z,33.00
2023-02-11T10:43:05.275Z,48.13
2023-02-11T10:45:17.735Z,36.70
2023-02-11T10:47:26.522Z,28.27
2023-02-11T10:49:42.160Z,44.22
2023-02-11T10:51:45.253Z,39.17
2023-02-11T10:53:49.910Z,36.92
2023-02-11T10:55:55.664Z,33.67
2023-02-11T10:58:01.713Z,37.25
2023-02-11T11:00:21.449Z,26.05
2023-02-11T11:02:32.089Z,26.45
2023-02-11T11:04:44.014Z,31.88
2023-02-11T11:06:47.167Z,35.17
2023-02-11T11:08:51.887Z,34.65
2023-02-11T11:11:05.109Z,29.40
2023-02-11T11:13:25.801Z,32.67
2023-02-11T11:15:30.842Z,28.02
2023-02-11T11:17:35.525Z,25.30
2023-02-11T11:19:39.230Z,29.55
2023-02-11T11:21:44.075Z,33.75
2023-02-11T11:23:57.508Z,22.15
2023-02-11T11:26:05.236Z,24.02
2023-02-11T11:28:21.285Z,22.50
2023-02-11T11:30:28.613Z,24.38
2023-02-11T11:32:33.958Z,25.33
2023-02-11T11:34:41.859Z,30.17
2023-02-11T11:36:45.206Z,21.90
2023-02-11T11:38:54.331Z,20.20
2023-02-11T11:41:20.040Z,25.67
2023-02-11T11:43:23.892Z,24.88
2023-02-11T11:45:28.271Z,23.00
2023-02-11T11:47:40.935Z,24.83
2023-02-11T11:49:52.133Z,24.95
2023-02-11T11:52:04.847Z,26.15
2023-02-11T11:54:12.394Z,26.80
2023-02-11T11:56:17.914Z,26.88
2023-02-11T11:58:23.534Z,19.13
2023-02-11T12:00:32.853Z,24.00
2023-02-11T12:03:14.464Z,24.77
2023-02-11T12:05:26.728Z,16.58
2023-02-11T12:07:45.320Z,19.90
2023-02-11T12:10:05.442Z,24.48
2023-02-11T12:12:24.251Z,21.02
2023-02-11T12:14:36.138Z,24.88
2023-02-11T12:16:51.872Z,24.55
2023-02-11T12:19:15.632Z,24.48
2023-02-11T12:21:45.706Z,17.60
2023-02-11T12:24:09.484Z,20.00
2023-02-11T12:26:16.934Z,21.52
2023-02-11T12:28:30.658Z,17.55
2023-02-11T12:30:55.197Z,20.42
2023-02-11T12:33:10.206Z,17.92
2023-02-11T12:35:37.108Z,20.50
2023-02-11T12:37:59.447Z,20.92
2023-02-11T12:40:14.455Z,21.30
2023-02-11T12:42:48.217Z,21.23
2023-02-11T12:45:10.059Z,21.23
2023-02-11T12:47:21.111Z,20.67
2023-02-11T12:49:38.278Z,21.35
2023-02-11T12:52:00.277Z,16.92
2023-02-11T12:54:17.005Z,20.17
2023-02-11T12:56:25.634Z,22.73
2023-02-11T12:58:44.623Z,19.05
2023-02-11T13:00:52.684Z,25.98
2023-02-11T13:03:01.327Z,19.40
2023-02-11T13:05:14.030Z,20.02
2023-02-11T13:07:24.124Z,22.75
2023-02-11T13:09:35.931Z,22.10
2023-02-11T13:11:41.363Z,24.55
2023-02-11T13:13:51.471Z,19.65
2023-02-11T13:15:57.265Z,18.98
2023-02-11T13:18:06.441Z,15.13
2023-02-11T13:20:19.573Z,25.58
2023-02-11T13:22:31.619Z,24.55
2023-02-11T13:24:44.807Z,22.00
2023-02-11T13:26:57.712Z,30.05
2023-02-11T13:29:14.185Z,19.00
2023-02-11T13:31:20.232Z,30.85
2023-02-11T13:33:34.214Z,27.17
2023-02-11T13:35:40.288Z,36.22
2023-02-11T13:37:49.000Z,40.58
2023-02-11T13:40:01.584Z,29.85
2023-02-11T13:42:05.900Z,45.35
2023-02-11T13:44:29.213Z,37.53
2023-02-11T13:46:53.869Z,37.85
2023-02-11T13:48:57.816Z,42.58
2023-02-11T13:51:03.100Z,48.92
2023-02-11T13:53:08.728Z,39.33
2023-02-11T13:55:23.830Z,36.70
2023-02-11T13:57:49.622Z,31.77
2023-02-11T13:59:54.218Z,34.80
2023-02-11T14:02:24.359Z,32.92
2023-02-11T14:04:47.971Z,35.53
2023-02-11T14:07:47.066Z,45.13
2023-02-11T14:09:57.261Z,47.22
2023-02-11T14:12:35.829Z,44.15
2023-02-11T14:15:02.357Z,39.00
2023-02-11T14:17:31.951Z,45.08
2023-02-11T14:19:36.320Z,44.88
2023-02-11T14:21:43.136Z,44.50
2023-02-11T14:23:47.204Z,41.08
2023-02-11T14:26:02.505Z,37.72
2023-02-11T14:28:17.679Z,36.83
2023-02-11T14:30:57.759Z,41.30
2023-02-11T14:33:40.027Z,36.03
2023-02-11T14:35:52.063Z,42.65
2023-02-11T14:38:04.757Z,31.13
2023-02-11T14:40:19.411Z,34.90
2023-02-11T14:42:26.847Z,28.58
2023-02-11T14:44:34.205Z,40.88
2023-02-11T14:46:37.396Z,28.50
2023-02-11T14:48:45.960Z,35.53
2023-02-11T14:50:52.640Z,27.25
2023-02-11T14:52:57.017Z,31.48
2023-02-11T14:55:34.460Z,28.75
2023-02-11T14:57:37.976Z,35.38
2023-02-11T14:59:56.007Z,27.40
2023-02-11T15:01:59.510Z,30.48
2023-02-11T15:04:03.655Z,26.85
2023-02-11T15:06:15.101Z,27.60
2023-02-11T15:08:18.356Z,21.88
2023-02-11T15:10:29.716Z,23.55
2023-02-11T15:12:32.907Z,21.95
2023-02-11T15:14:37.734Z,22.67
2023-02-11T15:16:45.892Z,20.13
2023-02-11T15:18:52.763Z,22.88
2023-02-11T15:20:56.072Z,23.58
2023-02-11T15:23:02.681Z,24.88
2023-02-11T15:25:14.660Z,34.63
2023-02-11T15:27:18.506Z,38.22
2023-02-11T15:29:21.622Z,35.80
2023-02-11T15:31:26.474Z,39.20
2023-02-11T15:33:32.249Z,35.78
2023-02-11T15:35:39.812Z,41.25
2023-02-11T15:37:43.010Z,39.95
2023-02-11T15:39:46.465Z,37.65
2023-02-11T15:41:49.688Z,40.65
2023-02-11T15:43:52.745Z,45.95
2023-02-11T15:45:59.978Z,39.20
2023-02-11T15:48:13.560Z,45.97
2023-02-11T15:50:23.536Z,43.47
2023-02-11T15:52:28.557Z,39.92
2023-02-11T15:54:32.726Z,30.52
2023-02-11T15:56:43.076Z,41.55
2023-02-11T15:58:50.334Z,35.50
2023-02-11T16:00:59.769Z,40.28
2023-02-11T16:03:03.215Z,30.98
2023-02-11T16:05:08.764Z,37.13
2023-02-11T16:07:45.573Z,36.15
2023-02-11T16:09:59.082Z,26.48
2023-02-11T16:12:04.614Z,30.13
2023-02-11T16:14:23.213Z,28.67
2023-02-11T16:16:31.587Z,36.33
2023-02-11T16:18:39.590Z,31.27
2023-02-11T16:20:48.463Z,32.13
2023-02-11T16:22:53.670Z,38.72
2023-02-11T16:25:00.536Z,33.75
2023-02-11T16:27:06.285Z,40.42
2023-02-11T16:29:13.978Z,37.58
2023-02-11T16:31:17.448Z,44.42
2023-02-11T16:33:21.520Z,41.78
2023-02-11T16:35:24.594Z,38.85
2023-02-11T16:37:27.807Z,64.13
2023-02-11T16:39:32.597Z,49.75
2023-02-11T16:41:35.814Z,52.03
2023-02-11T16:43:39.126Z,63.80
2023-02-11T16:45:42.558Z,61.13
2023-02-11T16:47:46.198Z,57.22
2023-02-11T16:49:52.569Z,59.53
2023-02-11T16:51:57.733Z,61.78
2023-02-11T16:54:01.254Z,57.00
2023-02-11T16:56:06.321Z,62.20
2023-02-11T16:58:09.497Z,64.72
2023-02-11T17:00:17.486Z,49.08
2023-02-11T17:02:27.723Z,51.45
2023-02-11T17:04:33.702Z,51.10
2023-02-11T17:06:37.063Z,44.88
2023-02-11T17:08:42.492Z,42.15
2023-02-11T17:10:46.442Z,40.65
2023-02-11T17:12:53.394Z,42.60
2023-02-11T17:14:56.561Z,46.35
2023-02-11T17:17:00.118Z,39.78
2023-02-11T17:19:03.484Z,46.10
2023-02-11T17:21:07.868Z,38.35
2023-02-11T17:23:12.490Z,49.97
2023-02-11T17:25:19.134Z,57.72
2023-02-11T17:27:26.509Z,60.17
2023-02-11T17:29:31.209Z,43.67
2023-02-11T17:31:34.937Z,44.72
2023-02-11T17:33:38.930Z,52.13
2023-02-11T17:35:42.123Z,62.38
2023-02-11T17:37:45.284Z,55.00
2023-02-11T17:39:53.992Z,52.58
2023-02-11T17:41:57.573Z,40.63
2023-02-11T17:44:02.053Z,48.83
2023-02-11T17:46:10.672Z,42.92
2023-02-11T17:48:13.920Z,52.15
2023-02-11T17:50:17.330Z,49.00
2023-02-11T17:52:21.536Z,58.03
2023-02-11T17:54:25.083Z,64.38
2023-02-11T17:56:29.907Z,52.25
2023-02-11T17:58:33.321Z,45.08
2023-02-11T18:00:36.444Z,39.47
2023-02-11T18:02:40.958Z,47.25
2023-02-11T18:04:44.288Z,43.00
2023-02-11T18:06:49.291Z,47.30
2023-02-11T18:08:58.084Z,57.03
2023-02-11T18:11:02.139Z,42.75
2023-02-11T18:13:05.339Z,47.97
2023-02-11T18:15:08.798Z,45.90
2023-02-11T18:17:12.195Z,53.47
2023-02-11T18:19:17.196Z,54.47
2023-02-11T18:21:23.852Z,62.08
2023-02-11T18:23:27.806Z,50.33
2023-02-11T18:25:31.131Z,60.92
2023-02-11T18:27:34.480Z,59.58
2023-02-11T18:29:37.721Z,61.05
2023-02-11T18:31:41.280Z,50.42
2023-02-11T18:33:44.638Z,60.92
2023-02-11T18:35:50.067Z,58.15
2023-02-11T18:37:53.773Z,59.22
2023-02-11T18:39:56.957Z,58.20
2023-02-11T18:42:00.183Z,60.08
2023-02-11T18:44:04.927Z,52.70
2023-02-11T18:46:10.429Z,58.60
2023-02-11T18:48:14.063Z,54.58
2023-02-11T18:50:17.356Z,64.75
2023-02-11T18:52:21.924Z,54.42
2023-02-11T18:54:25.189Z,58.72
2023-02-11T18:56:28.954Z,63.50
2023-02-11T18:58:32.199Z,55.60
2023-02-11T19:00:36.836Z,63.90
2023-02-11T19:02:40.525Z,61.80
2023-02-11T19:04:44.256Z,51.95
2023-02-11T19:06:49.710Z,56.00
2023-02-11T19:08:58.189Z,59.85
2023-02-11T19:11:05.966Z,56.70
2023-02-11T19:13:12.180Z,64.65
2023-02-11T19:15:16.112Z,56.75
2023-02-11T19:17:20.830Z,55.60
2023-02-11T19:19:28.149Z,60.72
2023-02-11T19:21:31.726Z,58.80
2023-02-11T19:23:35.156Z,65.22
2023-02-11T19:25:46.567Z,68.38
2023-02-11T19:27:49.905Z,69.00
2023-02-11T19:29:53.267Z,74.20
2023-02-11T19:31:57.121Z,62.63
2023-02-11T19:34:01.137Z,55.00
2023-02-11T19:36:06.892Z,62.55
2023-02-11T19:38:10.658Z,66.35
2023-02-11T19:40:15.520Z,65.45
2023-02-11T19:42:20.381Z,58.47
2023-02-11T19:44:23.614Z,63.92
2023-02-11T19:46:29.895Z,49.65
2023-02-11T19:48:33.384Z,53.45
2023-02-11T19:50:37.560Z,52.90
2023-02-11T19:52:41.957Z,55.20
2023-02-11T19:54:46.661Z,50.42
2023-02-11T19:56:50.306Z,50.03
2023-02-11T19:58:55.407Z,55.08
2023-02-11T20:01:08.189Z,60.92
2023-02-11T20:03:12.532Z,69.88
2023-02-11T20:05:16.740Z,66.47
2023-02-11T20:07:20.462Z,58.50
2023-02-11T20:09:23.731Z,70.15
2023-02-11T20:11:28.343Z,58.50
2023-02-11T20:13:31.876Z,63.53
2023-02-11T20:15:36.687Z,65.78
2023-02-11T20:17:40.051Z,62.55
2023-02-11T20:19:43.147Z,62.17
2023-02-11T20:21:47.780Z,69.68
2023-02-11T20:23:52.175Z,55.35
2023-02-11T20:25:55.323Z,64.65
2023-02-11T20:27:58.551Z,75.25
2023-02-11T20:30:02.119Z,56.88
2023-02-11T20:32:07.315Z,60.40
2023-02-11T20:34:12.087Z,74.72
2023-02-11T20:36:18.120Z,72.25
2023-02-11T20:38:21.466Z,53.10
2023-02-11T20:40:24.948Z,69.55
2023-02-11T20:42:28.521Z,75.80
2023-02-11T20:44:31.709Z,57.65
2023-02-11T20:46:36.240Z,65.95
2023-02-11T20:48:40.880Z,73.05
2023-02-11T20:50:46.573Z,60.97
2023-02-11T20:52:51.052Z,67.63
2023-02-11T20:54:54.573Z,78.07
2023-02-11T20:56:58.382Z,71.20
2023-02-11T20:59:04.036Z,66.63
2023-02-11T21:01:13.914Z,72.72
2023-02-11T21:03:17.176Z,83.65
2023-02-11T21:05:22.424Z,94.00
2023-02-11T21:07:29.196Z,76.32
2023-02-11T21:09:33.726Z,73.65
2023-02-11T21:11:37.411Z,68.13
2023-02-11T21:13:42.700Z,64.38
2023-02-11T21:15:46.298Z,67.10
2023-02-11T21:17:49.773Z,70.93
2023-02-11T21:19:53.119Z,55.42
2023-02-11T21:22:00.647Z,62.60
2023-02-11T21:24:06.243Z,61.45
2023-02-11T21:26:10.315Z,57.88
2023-02-11T21:28:13.689Z,47.70
2023-02-11T21:30:17.441Z,58.58
2023-02-11T21:32:20.469Z,50.72
2023-02-11T21:34:23.586Z,58.90
2023-02-11T21:36:27.885Z,65.70
2023-02-11T21:38:32.815Z,75.38
2023-02-11T21:40:36.007Z,55.63
2023-02-11T21:42:39.218Z,74.28
2023-02-11T21:44:42.479Z,45.92
2023-02-11T21:46:45.740Z,55.22
2023-02-11T21:48:49.658Z,62.13
2023-02-11T21:50:52.870Z,46.63
2023-02-11T21:52:56.147Z,49.33
2023-02-11T21:55:00.684Z,64.93
2023-02-11T21:57:04.175Z,63.70
2023-02-11T21:59:07.362Z,54.95
2023-02-11T22:01:15.213Z,45.10
2023-02-11T22:03:18.371Z,45.38
2023-02-11T22:05:21.790Z,49.33
2023-02-11T22:07:27.424Z,51.55
2023-02-11T22:09:31.099Z,39.42
2023-02-11T22:11:35.979Z,42.72
2023-02-11T22:13:39.769Z,58.50
2023-02-11T22:15:42.928Z,45.90
2023-02-11T22:17:45.990Z,46.88
2023-02-11T22:19:49.291Z,45.63
2023-02-11T22:21:52.437Z,41.25
2023-02-11T22:23:56.889Z,44.97
2023-02-11T22:26:04.123Z,34.47
2023-02-11T22:28:08.691Z,43.63
2023-02-11T22:30:12.746Z,54.10
2023-02-11T22:32:17.791Z,37.03
2023-02-11T22:34:20.998Z,50.83
2023-02-11T22:36:26.146Z,36.58
2023-02-11T22:38:29.740Z,45.67
2023-02-11T22:40:32.986Z,41.25
2023-02-11T22:42:36.154Z,37.03
2023-02-11T22:44:40.794Z,53.33
2023-02-11T22:46:44.646Z,50.97
2023-02-11T22:48:48.640Z,51.67
2023-02-11T22:50:51.999Z,55.65
2023-02-11T22:52:55.534Z,53.80
2023-02-11T22:55:00.368Z,67.47
2023-02-11T22:57:03.762Z,80.40
2023-02-11T22:59:09.423Z,61.75
2023-02-11T23:01:14.481Z,48.08
2023-02-11T23:03:17.818Z,72.65
2023-02-11T23:05:20.878Z,48.45
2023-02-11T23:07:23.998Z,49.92
2023-02-11T23:09:27.144Z,42.03
2023-02-11T23:11:31.828Z,46.47
2023-02-11T23:13:36.466Z,36.70
2023-02-11T23:15:40.805Z,30.52
2023-02-11T23:17:45.330Z,39.55
2023-02-11T23:19:48.486Z,33.28
2023-02-11T23:21:52.654Z,32.13
2023-02-11T23:23:57.530Z,33.47
2023-02-11T23:26:00.825Z,28.58
2023-02-11T23:28:03.929Z,24.48
2023-02-11T23:30:08.346Z,25.65
2023-02-11T23:32:11.603Z,24.80
2023-02-11T23:34:17.294Z,32.15
2023-02-11T23:36:21.782Z,20.75
2023-02-11T23:38:24.840Z,25.65
2023-02-11T23:40:28.022Z,21.70
2023-02-11T23:42:31.441Z,18.40
2023-02-11T23:44:34.527Z,15.52
2023-02-11T23:46:37.878Z,18.73
2023-02-11T23:48:41.402Z,19.88
2023-02-11T23:50:46.218Z,17.25
2023-02-11T23:52:49.684Z,18.70
2023-02-11T23:54:53.189Z,20.52
2023-02-11T23:56:56.337Z,18.08
2023-02-11T23:59:00.051Z,19.50
